sensor_id;sensor_type;location;lat;lon;timestamp;temperature;humidity
19972;DHT22;10147;16.402;102.848;2023-09-19T00:01:06;24.50;99.90
19972;DHT22;10147;16.402;102.848;2023-09-19T00:03:42;24.60;99.90
19972;DHT22;10147;16.402;102.848;2023-09-19T00:06:12;24.60;99.90
19972;DHT22;10147;16.402;102.848;2023-09-19T00:08:45;24.70;99.90
19972;DHT22;10147;16.402;102.848;2023-09-19T00:11:17;24.60;99.90
19972;DHT22;10147;16.402;102.848;2023-09-19T00:13:50;24.60;99.90
19972;DHT22;10147;16.402;102.848;2023-09-19T00:16:20;24.70;99.90
19972;DHT22;10147;16.402;102.848;2023-09-19T00:18:50;24.70;99.90
19972;DHT22;10147;16.402;102.848;2023-09-19T00:21:20;24.70;99.90
19972;DHT22;10147;16.402;102.848;2023-09-19T00:23:51;24.70;99.90
19972;DHT22;10147;16.402;102.848;2023-09-19T00:26:21;24.80;99.90
19972;DHT22;10147;16.402;102.848;2023-09-19T00:28:55;24.80;99.90
19972;DHT22;10147;16.402;102.848;2023-09-19T00:31:26;24.80;99.90
19972;DHT22;10147;16.402;102.848;2023-09-19T00:33:56;24.80;99.90
19972;DHT22;10147;16.402;102.848;2023-09-19T00:36:32;24.80;99.90
19972;DHT22;10147;16.402;102.848;2023-09-19T00:39:03;24.70;99.90
19972;DHT22;10147;16.402;102.848;2023-09-19T00:41:35;24.80;99.90
19972;DHT22;10147;16.402;102.848;2023-09-19T00:44:08;24.80;99.90
19972;DHT22;10147;16.402;102.848;2023-09-19T00:46:40;24.80;99.90
19972;DHT22;10147;16.402;102.848;2023-09-19T00:49:10;24.80;99.90
19972;DHT22;10147;16.402;102.848;2023-09-19T00:51:42;24.90;99.90
19972;DHT22;10147;16.402;102.848;2023-09-19T00:54:17;24.90;99.90
19972;DHT22;10147;16.402;102.848;2023-09-19T00:56:48;24.90;99.90
19972;DHT22;10147;16.402;102.848;2023-09-19T00:59:21;25.00;99.90
19972;DHT22;10147;16.402;102.848;2023-09-19T01:01:52;25.00;99.90
19972;DHT22;10147;16.402;102.848;2023-09-19T01:04:24;25.00;99.90
19972;DHT22;10147;16.402;102.848;2023-09-19T01:06:54;25.00;99.90
19972;DHT22;10147;16.402;102.848;2023-09-19T01:09:25;25.10;99.90
19972;DHT22;10147;16.402;102.848;2023-09-19T01:12:01;25.10;99.90
19972;DHT22;10147;16.402;102.848;2023-09-19T01:14:49;25.20;99.90
19972;DHT22;10147;16.402;102.848;2023-09-19T01:17:32;25.20;99.90
19972;DHT22;10147;16.402;102.848;2023-09-19T01:29:45;25.30;99.90
19972;DHT22;10147;16.402;102.848;2023-09-19T01:32:20;25.30;99.90
19972;DHT22;10147;16.402;102.848;2023-09-19T01:34:53;25.30;99.90
19972;DHT22;10147;16.402;102.848;2023-09-19T01:37:26;25.40;99.90
19972;DHT22;10147;16.402;102.848;2023-09-19T01:40:04;25.40;99.90
19972;DHT22;10147;16.402;102.848;2023-09-19T01:43:01;25.40;99.90
19972;DHT22;10147;16.402;102.848;2023-09-19T01:52:12;25.50;99.90
19972;DHT22;10147;16.402;102.848;2023-09-19T01:54:52;25.50;99.90
19972;DHT22;10147;16.402;102.848;2023-09-19T01:57:32;25.50;99.90
19972;DHT22;10147;16.402;102.848;2023-09-19T02:00:08;25.60;99.90
19972;DHT22;10147;16.402;102.848;2023-09-19T02:02:45;25.70;99.90
19972;DHT22;10147;16.402;102.848;2023-09-19T02:05:24;25.70;99.90
19972;DHT22;10147;16.402;102.848;2023-09-19T02:07:55;25.70;99.90
19972;DHT22;10147;16.402;102.848;2023-09-19T02:10:24;25.70;99.90
19972;DHT22;10147;16.402;102.848;2023-09-19T02:12:54;25.70;99.90
19972;DHT22;10147;16.402;102.848;2023-09-19T02:15:26;25.70;99.90
19972;DHT22;10147;16.402;102.848;2023-09-19T02:17:55;25.80;99.90
19972;DHT22;10147;16.402;102.848;2023-09-19T02:20:26;25.80;99.90
19972;DHT22;10147;16.402;102.848;2023-09-19T02:22:56;25.90;99.90
19972;DHT22;10147;16.402;102.848;2023-09-19T02:25:26;25.90;99.90
19972;DHT22;10147;16.402;102.848;2023-09-19T02:27:57;25.90;99.90
19972;DHT22;10147;16.402;102.848;2023-09-19T02:30:28;26.00;99.90
19972;DHT22;10147;16.402;102.848;2023-09-19T02:32:59;26.00;99.90
19972;DHT22;10147;16.402;102.848;2023-09-19T02:35:32;26.00;99.90
19972;DHT22;10147;16.402;102.848;2023-09-19T02:38:05;26.00;99.90
19972;DHT22;10147;16.402;102.848;2023-09-19T02:40:37;26.00;99.90
19972;DHT22;10147;16.402;102.848;2023-09-19T02:43:07;26.00;99.90
19972;DHT22;10147;16.402;102.848;2023-09-19T02:45:38;26.00;99.90
19972;DHT22;10147;16.402;102.848;2023-09-19T02:48:08;26.10;99.90
19972;DHT22;10147;16.402;102.848;2023-09-19T02:50:42;26.10;99.90
19972;DHT22;10147;16.402;102.848;2023-09-19T02:53:13;26.00;99.90
19972;DHT22;10147;16.402;102.848;2023-09-19T02:55:43;26.10;99.90
19972;DHT22;10147;16.402;102.848;2023-09-19T02:58:13;26.10;99.90
19972;DHT22;10147;16.402;102.848;2023-09-19T03:00:44;26.00;99.90
19972;DHT22;10147;16.402;102.848;2023-09-19T03:03:19;26.10;99.90
19972;DHT22;10147;16.402;102.848;2023-09-19T03:05:49;26.10;99.90
19972;DHT22;10147;16.402;102.848;2023-09-19T03:08:23;26.10;99.90
19972;DHT22;10147;16.402;102.848;2023-09-19T03:10:54;26.10;99.90
19972;DHT22;10147;16.402;102.848;2023-09-19T03:13:24;26.20;99.90
19972;DHT22;10147;16.402;102.848;2023-09-19T03:15:55;26.20;99.90
19972;DHT22;10147;16.402;102.848;2023-09-19T03:18:27;26.20;99.90
19972;DHT22;10147;16.402;102.848;2023-09-19T03:20:58;26.30;99.90
19972;DHT22;10147;16.402;102.848;2023-09-19T03:23:31;26.30;99.90
19972;DHT22;10147;16.402;102.848;2023-09-19T03:26:01;26.40;99.90
19972;DHT22;10147;16.402;102.848;2023-09-19T03:28:33;26.40;99.90
19972;DHT22;10147;16.402;102.848;2023-09-19T03:31:05;26.40;99.90
19972;DHT22;10147;16.402;102.848;2023-09-19T03:33:37;26.40;99.90
19972;DHT22;10147;16.402;102.848;2023-09-19T03:36:07;26.40;99.90
19972;DHT22;10147;16.402;102.848;2023-09-19T03:38:38;26.40;99.90
19972;DHT22;10147;16.402;102.848;2023-09-19T03:41:08;26.40;99.90
19972;DHT22;10147;16.402;102.848;2023-09-19T03:43:38;26.50;99.90
19972;DHT22;10147;16.402;102.848;2023-09-19T03:46:09;26.50;99.90
19972;DHT22;10147;16.402;102.848;2023-09-19T03:48:43;26.40;99.90
19972;DHT22;10147;16.402;102.848;2023-09-19T03:51:13;26.40;99.90
19972;DHT22;10147;16.402;102.848;2023-09-19T03:53:43;26.50;99.90
19972;DHT22;10147;16.402;102.848;2023-09-19T03:56:13;26.50;99.90
19972;DHT22;10147;16.402;102.848;2023-09-19T03:58:43;26.50;99.90
19972;DHT22;10147;16.402;102.848;2023-09-19T04:01:14;26.50;99.90
19972;DHT22;10147;16.402;102.848;2023-09-19T04:03:47;26.50;99.90
19972;DHT22;10147;16.402;102.848;2023-09-19T04:06:21;26.60;99.90
19972;DHT22;10147;16.402;102.848;2023-09-19T04:08:52;26.70;99.90
19972;DHT22;10147;16.402;102.848;2023-09-19T04:11:24;26.70;99.90
19972;DHT22;10147;16.402;102.848;2023-09-19T04:13:53;26.70;99.90
19972;DHT22;10147;16.402;102.848;2023-09-19T04:16:24;26.70;99.90
19972;DHT22;10147;16.402;102.848;2023-09-19T04:18:56;26.70;99.90
19972;DHT22;10147;16.402;102.848;2023-09-19T04:21:26;26.70;99.90
19972;DHT22;10147;16.402;102.848;2023-09-19T04:23:57;26.70;99.90
19972;DHT22;10147;16.402;102.848;2023-09-19T04:26:28;26.80;99.90
19972;DHT22;10147;16.402;102.848;2023-09-19T04:28:58;26.80;99.90
19972;DHT22;10147;16.402;102.848;2023-09-19T04:31:28;26.80;99.90
19972;DHT22;10147;16.402;102.848;2023-09-19T04:33:59;26.80;99.90
19972;DHT22;10147;16.402;102.848;2023-09-19T04:36:35;26.80;99.90
19972;DHT22;10147;16.402;102.848;2023-09-19T04:39:06;26.80;99.90
19972;DHT22;10147;16.402;102.848;2023-09-19T04:41:37;26.70;99.90
19972;DHT22;10147;16.402;102.848;2023-09-19T04:44:09;26.70;99.90
19972;DHT22;10147;16.402;102.848;2023-09-19T04:46:38;26.70;99.90
19972;DHT22;10147;16.402;102.848;2023-09-19T04:49:09;26.80;99.90
19972;DHT22;10147;16.402;102.848;2023-09-19T04:51:39;26.80;99.90
19972;DHT22;10147;16.402;102.848;2023-09-19T04:54:10;26.80;99.90
19972;DHT22;10147;16.402;102.848;2023-09-19T04:56:40;26.90;99.90
19972;DHT22;10147;16.402;102.848;2023-09-19T04:59:10;26.90;99.90
19972;DHT22;10147;16.402;102.848;2023-09-19T05:01:41;26.90;99.90
19972;DHT22;10147;16.402;102.848;2023-09-19T05:04:11;27.00;99.90
19972;DHT22;10147;16.402;102.848;2023-09-19T05:06:41;27.00;99.90
19972;DHT22;10147;16.402;102.848;2023-09-19T05:09:14;27.10;99.90
19972;DHT22;10147;16.402;102.848;2023-09-19T05:11:44;27.10;99.90
19972;DHT22;10147;16.402;102.848;2023-09-19T05:14:15;27.20;99.90
19972;DHT22;10147;16.402;102.848;2023-09-19T05:16:44;27.30;99.90
19972;DHT22;10147;16.402;102.848;2023-09-19T05:19:17;27.30;99.90
19972;DHT22;10147;16.402;102.848;2023-09-19T05:21:47;27.30;99.90
19972;DHT22;10147;16.402;102.848;2023-09-19T05:24:18;27.40;99.90
19972;DHT22;10147;16.402;102.848;2023-09-19T05:26:49;27.40;99.90
19972;DHT22;10147;16.402;102.848;2023-09-19T05:29:19;27.40;99.90
19972;DHT22;10147;16.402;102.848;2023-09-19T05:31:48;27.40;99.90
19972;DHT22;10147;16.402;102.848;2023-09-19T05:34:19;27.40;99.90
19972;DHT22;10147;16.402;102.848;2023-09-19T05:36:48;27.50;99.90
19972;DHT22;10147;16.402;102.848;2023-09-19T05:39:19;27.50;99.90
19972;DHT22;10147;16.402;102.848;2023-09-19T05:41:48;27.50;99.90
19972;DHT22;10147;16.402;102.848;2023-09-19T05:44:18;27.70;99.90
19972;DHT22;10147;16.402;102.848;2023-09-19T05:46:48;27.60;99.90
19972;DHT22;10147;16.402;102.848;2023-09-19T05:49:19;27.70;99.90
19972;DHT22;10147;16.402;102.848;2023-09-19T05:51:51;27.80;99.90
19972;DHT22;10147;16.402;102.848;2023-09-19T05:54:26;27.90;99.90
19972;DHT22;10147;16.402;102.848;2023-09-19T05:56:56;27.90;99.90
19972;DHT22;10147;16.402;102.848;2023-09-19T05:59:27;28.00;99.90
19972;DHT22;10147;16.402;102.848;2023-09-19T06:01:57;28.20;99.90
19972;DHT22;10147;16.402;102.848;2023-09-19T06:04:29;28.20;99.90
19972;DHT22;10147;16.402;102.848;2023-09-19T06:07:00;28.30;99.90
19972;DHT22;10147;16.402;102.848;2023-09-19T06:09:30;28.40;99.90
19972;DHT22;10147;16.402;102.848;2023-09-19T06:12:01;28.40;99.90
19972;DHT22;10147;16.402;102.848;2023-09-19T06:14:33;28.40;99.90
19972;DHT22;10147;16.402;102.848;2023-09-19T06:17:02;28.40;99.90
19972;DHT22;10147;16.402;102.848;2023-09-19T06:19:33;28.40;99.90
19972;DHT22;10147;16.402;102.848;2023-09-19T06:22:03;28.40;99.90
19972;DHT22;10147;16.402;102.848;2023-09-19T06:24:33;28.50;99.90
19972;DHT22;10147;16.402;102.848;2023-09-19T06:27:03;28.50;99.90
19972;DHT22;10147;16.402;102.848;2023-09-19T06:29:33;28.60;99.90
19972;DHT22;10147;16.402;102.848;2023-09-19T06:32:10;28.60;99.90
19972;DHT22;10147;16.402;102.848;2023-09-19T06:34:40;28.60;99.90
19972;DHT22;10147;16.402;102.848;2023-09-19T06:37:12;28.60;99.90
19972;DHT22;10147;16.402;102.848;2023-09-19T06:39:42;28.70;99.90
19972;DHT22;10147;16.402;102.848;2023-09-19T06:42:12;28.70;99.90
19972;DHT22;10147;16.402;102.848;2023-09-19T06:44:42;28.60;99.90
19972;DHT22;10147;16.402;102.848;2023-09-19T06:47:12;28.70;99.90
19972;DHT22;10147;16.402;102.848;2023-09-19T06:49:43;28.70;99.90
19972;DHT22;10147;16.402;102.848;2023-09-19T06:52:16;28.80;99.90
19972;DHT22;10147;16.402;102.848;2023-09-19T06:54:46;28.80;99.90
19972;DHT22;10147;16.402;102.848;2023-09-19T06:57:19;29.00;99.90
19972;DHT22;10147;16.402;102.848;2023-09-19T06:59:51;29.00;99.90
19972;DHT22;10147;16.402;102.848;2023-09-19T07:02:23;28.90;99.90
19972;DHT22;10147;16.402;102.848;2023-09-19T07:04:53;28.80;99.90
19972;DHT22;10147;16.402;102.848;2023-09-19T07:07:24;28.90;99.90
19972;DHT22;10147;16.402;102.848;2023-09-19T07:09:54;28.90;99.90
19972;DHT22;10147;16.402;102.848;2023-09-19T07:12:24;28.90;99.90
19972;DHT22;10147;16.402;102.848;2023-09-19T07:14:54;28.90;99.90
19972;DHT22;10147;16.402;102.848;2023-09-19T07:17:25;29.00;99.90
19972;DHT22;10147;16.402;102.848;2023-09-19T07:19:55;29.10;99.90
19972;DHT22;10147;16.402;102.848;2023-09-19T07:22:27;29.10;99.90
19972;DHT22;10147;16.402;102.848;2023-09-19T07:24:57;29.10;99.90
19972;DHT22;10147;16.402;102.848;2023-09-19T07:27:27;29.00;99.90
19972;DHT22;10147;16.402;102.848;2023-09-19T07:29:57;29.10;99.90
19972;DHT22;10147;16.402;102.848;2023-09-19T07:32:28;29.10;99.90
19972;DHT22;10147;16.402;102.848;2023-09-19T07:34:58;29.10;99.90
19972;DHT22;10147;16.402;102.848;2023-09-19T07:37:29;29.10;99.90
19972;DHT22;10147;16.402;102.848;2023-09-19T07:40:06;29.10;99.90
19972;DHT22;10147;16.402;102.848;2023-09-19T07:42:39;29.20;99.90
19972;DHT22;10147;16.402;102.848;2023-09-19T07:45:11;29.20;99.90
19972;DHT22;10147;16.402;102.848;2023-09-19T07:47:48;29.30;99.90
19972;DHT22;10147;16.402;102.848;2023-09-19T07:50:19;29.40;99.90
19972;DHT22;10147;16.402;102.848;2023-09-19T07:52:50;29.40;99.90
19972;DHT22;10147;16.402;102.848;2023-09-19T07:55:21;29.40;99.90
19972;DHT22;10147;16.402;102.848;2023-09-19T07:57:55;29.30;99.90
19972;DHT22;10147;16.402;102.848;2023-09-19T08:00:25;29.30;99.90
19972;DHT22;10147;16.402;102.848;2023-09-19T08:03:00;29.40;99.90
19972;DHT22;10147;16.402;102.848;2023-09-19T08:05:40;29.30;99.90
19972;DHT22;10147;16.402;102.848;2023-09-19T08:08:12;29.30;99.90
19972;DHT22;10147;16.402;102.848;2023-09-19T08:10:44;29.30;99.90
19972;DHT22;10147;16.402;102.848;2023-09-19T08:13:21;29.40;99.90
19972;DHT22;10147;16.402;102.848;2023-09-19T08:15:52;29.30;99.90
19972;DHT22;10147;16.402;102.848;2023-09-19T08:18:22;29.40;99.90
19972;DHT22;10147;16.402;102.848;2023-09-19T08:20:53;29.30;99.90
19972;DHT22;10147;16.402;102.848;2023-09-19T08:23:23;29.30;99.90
19972;DHT22;10147;16.402;102.848;2023-09-19T08:25:56;29.20;99.90
19972;DHT22;10147;16.402;102.848;2023-09-19T08:28:28;29.30;99.90
19972;DHT22;10147;16.402;102.848;2023-09-19T08:31:03;29.30;99.90
19972;DHT22;10147;16.402;102.848;2023-09-19T08:33:37;29.40;99.90
19972;DHT22;10147;16.402;102.848;2023-09-19T08:36:07;29.50;99.90
19972;DHT22;10147;16.402;102.848;2023-09-19T08:38:39;29.40;99.90
19972;DHT22;10147;16.402;102.848;2023-09-19T08:41:08;29.50;99.90
19972;DHT22;10147;16.402;102.848;2023-09-19T08:43:38;29.40;99.90
19972;DHT22;10147;16.402;102.848;2023-09-19T08:46:11;29.40;99.90
19972;DHT22;10147;16.402;102.848;2023-09-19T08:49:01;29.50;99.90
19972;DHT22;10147;16.402;102.848;2023-09-19T08:51:54;29.60;99.90
19972;DHT22;10147;16.402;102.848;2023-09-19T08:54:34;29.80;99.90
19972;DHT22;10147;16.402;102.848;2023-09-19T08:57:07;29.80;99.90
19972;DHT22;10147;16.402;102.848;2023-09-19T08:59:42;29.70;99.90
19972;DHT22;10147;16.402;102.848;2023-09-19T09:02:16;29.70;99.90
19972;DHT22;10147;16.402;102.848;2023-09-19T09:04:50;29.80;99.90
19972;DHT22;10147;16.402;102.848;2023-09-19T09:07:22;29.80;99.90
19972;DHT22;10147;16.402;102.848;2023-09-19T09:09:52;29.70;99.90
19972;DHT22;10147;16.402;102.848;2023-09-19T09:12:22;29.70;99.90
19972;DHT22;10147;16.402;102.848;2023-09-19T09:14:53;29.70;99.90
19972;DHT22;10147;16.402;102.848;2023-09-19T09:17:23;29.80;99.90
19972;DHT22;10147;16.402;102.848;2023-09-19T09:19:54;29.70;99.90
19972;DHT22;10147;16.402;102.848;2023-09-19T09:22:24;29.60;99.90
19972;DHT22;10147;16.402;102.848;2023-09-19T09:24:56;29.60;99.90
19972;DHT22;10147;16.402;102.848;2023-09-19T09:27:34;29.50;99.90
19972;DHT22;10147;16.402;102.848;2023-09-19T09:30:04;29.40;99.90
19972;DHT22;10147;16.402;102.848;2023-09-19T09:32:36;29.40;99.90
19972;DHT22;10147;16.402;102.848;2023-09-19T09:35:28;29.40;99.90
19972;DHT22;10147;16.402;102.848;2023-09-19T09:38:01;29.40;99.90
19972;DHT22;10147;16.402;102.848;2023-09-19T09:40:48;29.30;99.90
19972;DHT22;10147;16.402;102.848;2023-09-19T09:43:28;29.30;99.90
19972;DHT22;10147;16.402;102.848;2023-09-19T09:46:19;29.20;99.90
19972;DHT22;10147;16.402;102.848;2023-09-19T09:49:10;29.20;99.90
19972;DHT22;10147;16.402;102.848;2023-09-19T09:55:05;29.20;99.90
19972;DHT22;10147;16.402;102.848;2023-09-19T09:57:37;29.20;99.90
19972;DHT22;10147;16.402;102.848;2023-09-19T10:00:10;29.10;99.90
19972;DHT22;10147;16.402;102.848;2023-09-19T10:02:49;29.10;99.90
19972;DHT22;10147;16.402;102.848;2023-09-19T10:05:20;29.10;99.90
19972;DHT22;10147;16.402;102.848;2023-09-19T10:08:13;29.00;99.90
19972;DHT22;10147;16.402;102.848;2023-09-19T10:10:48;29.00;99.90
19972;DHT22;10147;16.402;102.848;2023-09-19T10:13:36;28.90;99.90
19972;DHT22;10147;16.402;102.848;2023-09-19T10:16:12;29.00;99.90
19972;DHT22;10147;16.402;102.848;2023-09-19T10:18:44;28.90;99.90
19972;DHT22;10147;16.402;102.848;2023-09-19T10:21:15;28.90;99.90
19972;DHT22;10147;16.402;102.848;2023-09-19T10:23:52;28.90;99.90
19972;DHT22;10147;16.402;102.848;2023-09-19T10:26:27;28.90;99.90
19972;DHT22;10147;16.402;102.848;2023-09-19T10:29:01;28.80;99.90
19972;DHT22;10147;16.402;102.848;2023-09-19T10:31:38;28.80;99.90
19972;DHT22;10147;16.402;102.848;2023-09-19T10:34:11;28.80;99.90
19972;DHT22;10147;16.402;102.848;2023-09-19T10:36:44;28.90;99.90
19972;DHT22;10147;16.402;102.848;2023-09-19T10:39:16;28.90;99.90
19972;DHT22;10147;16.402;102.848;2023-09-19T10:41:55;28.80;99.90
19972;DHT22;10147;16.402;102.848;2023-09-19T10:44:29;28.80;99.90
19972;DHT22;10147;16.402;102.848;2023-09-19T10:47:02;28.70;99.90
19972;DHT22;10147;16.402;102.848;2023-09-19T10:49:42;28.60;99.90
19972;DHT22;10147;16.402;102.848;2023-09-19T10:52:15;28.60;99.90
19972;DHT22;10147;16.402;102.848;2023-09-19T10:54:51;28.50;99.90
19972;DHT22;10147;16.402;102.848;2023-09-19T10:57:25;28.40;99.90
19972;DHT22;10147;16.402;102.848;2023-09-19T11:00:02;28.40;99.90
19972;DHT22;10147;16.402;102.848;2023-09-19T11:03:19;28.40;99.90
19972;DHT22;10147;16.402;102.848;2023-09-19T11:09:02;28.50;99.90
19972;DHT22;10147;16.402;102.848;2023-09-19T11:11:51;28.50;99.90
19972;DHT22;10147;16.402;102.848;2023-09-19T11:14:30;28.50;99.90
19972;DHT22;10147;16.402;102.848;2023-09-19T11:17:36;28.50;99.90
19972;DHT22;10147;16.402;102.848;2023-09-19T11:20:18;28.40;99.90
19972;DHT22;10147;16.402;102.848;2023-09-19T11:23:17;28.40;99.90
19972;DHT22;10147;16.402;102.848;2023-09-19T11:25:48;28.50;99.90
19972;DHT22;10147;16.402;102.848;2023-09-19T11:28:37;28.50;99.90
19972;DHT22;10147;16.402;102.848;2023-09-19T11:34:39;28.40;99.90
19972;DHT22;10147;16.402;102.848;2023-09-19T11:40:21;28.40;99.90
19972;DHT22;10147;16.402;102.848;2023-09-19T11:42:51;28.30;99.90
19972;DHT22;10147;16.402;102.848;2023-09-19T11:46:05;28.20;99.90
19972;DHT22;10147;16.402;102.848;2023-09-19T11:48:35;28.20;99.90
19972;DHT22;10147;16.402;102.848;2023-09-19T11:51:12;28.20;99.90
19972;DHT22;10147;16.402;102.848;2023-09-19T11:53:50;28.20;99.90
19972;DHT22;10147;16.402;102.848;2023-09-19T11:56:23;28.20;99.90
19972;DHT22;10147;16.402;102.848;2023-09-19T11:58:56;28.20;99.90
19972;DHT22;10147;16.402;102.848;2023-09-19T12:01:32;28.20;99.90
19972;DHT22;10147;16.402;102.848;2023-09-19T12:04:05;28.10;99.90
19972;DHT22;10147;16.402;102.848;2023-09-19T12:06:36;28.00;99.90
19972;DHT22;10147;16.402;102.848;2023-09-19T12:09:13;28.00;99.90
19972;DHT22;10147;16.402;102.848;2023-09-19T12:11:46;28.00;99.90
19972;DHT22;10147;16.402;102.848;2023-09-19T12:14:23;28.10;99.90
19972;DHT22;10147;16.402;102.848;2023-09-19T12:16:56;28.10;99.90
19972;DHT22;10147;16.402;102.848;2023-09-19T12:19:26;28.10;99.90
19972;DHT22;10147;16.402;102.848;2023-09-19T12:22:00;28.10;99.90
19972;DHT22;10147;16.402;102.848;2023-09-19T12:24:38;28.10;99.90
19972;DHT22;10147;16.402;102.848;2023-09-19T12:27:12;28.10;99.90
19972;DHT22;10147;16.402;102.848;2023-09-19T12:29:47;28.00;99.90
19972;DHT22;10147;16.402;102.848;2023-09-19T12:32:37;28.00;99.90
19972;DHT22;10147;16.402;102.848;2023-09-19T12:35:10;28.00;99.90
19972;DHT22;10147;16.402;102.848;2023-09-19T12:37:44;27.90;99.90
19972;DHT22;10147;16.402;102.848;2023-09-19T12:40:23;28.00;99.90
19972;DHT22;10147;16.402;102.848;2023-09-19T12:42:58;27.90;99.90
19972;DHT22;10147;16.402;102.848;2023-09-19T12:45:30;27.90;99.90
19972;DHT22;10147;16.402;102.848;2023-09-19T12:48:21;27.80;99.90
19972;DHT22;10147;16.402;102.848;2023-09-19T12:51:12;27.60;99.90
19972;DHT22;10147;16.402;102.848;2023-09-19T12:53:44;27.70;99.90
19972;DHT22;10147;16.402;102.848;2023-09-19T12:56:17;27.80;99.90
19972;DHT22;10147;16.402;102.848;2023-09-19T12:58:51;27.80;99.90
19972;DHT22;10147;16.402;102.848;2023-09-19T13:01:24;27.80;99.90
19972;DHT22;10147;16.402;102.848;2023-09-19T13:04:17;27.80;99.90
19972;DHT22;10147;16.402;102.848;2023-09-19T13:07:08;27.80;99.90
19972;DHT22;10147;16.402;102.848;2023-09-19T13:10:05;27.80;99.90
19972;DHT22;10147;16.402;102.848;2023-09-19T13:12:39;27.80;99.90
19972;DHT22;10147;16.402;102.848;2023-09-19T13:15:15;27.80;99.90
19972;DHT22;10147;16.402;102.848;2023-09-19T13:17:50;27.70;99.90
19972;DHT22;10147;16.402;102.848;2023-09-19T13:20:27;27.70;99.90
19972;DHT22;10147;16.402;102.848;2023-09-19T13:22:57;27.50;99.90
19972;DHT22;10147;16.402;102.848;2023-09-19T13:25:38;27.40;99.90
19972;DHT22;10147;16.402;102.848;2023-09-19T13:28:09;27.50;99.90
19972;DHT22;10147;16.402;102.848;2023-09-19T13:30:39;27.50;99.90
19972;DHT22;10147;16.402;102.848;2023-09-19T13:33:12;27.40;99.90
19972;DHT22;10147;16.402;102.848;2023-09-19T13:35:49;27.30;99.90
19972;DHT22;10147;16.402;102.848;2023-09-19T13:38:18;27.30;99.90
19972;DHT22;10147;16.402;102.848;2023-09-19T13:40:51;27.40;99.90
19972;DHT22;10147;16.402;102.848;2023-09-19T13:43:22;27.20;99.90
19972;DHT22;10147;16.402;102.848;2023-09-19T13:45:52;27.20;99.90
19972;DHT22;10147;16.402;102.848;2023-09-19T13:48:23;27.40;99.90
19972;DHT22;10147;16.402;102.848;2023-09-19T13:50:55;27.50;99.90
19972;DHT22;10147;16.402;102.848;2023-09-19T13:53:25;27.40;99.90
19972;DHT22;10147;16.402;102.848;2023-09-19T13:55:55;27.30;99.90
19972;DHT22;10147;16.402;102.848;2023-09-19T13:58:26;27.30;99.90
19972;DHT22;10147;16.402;102.848;2023-09-19T14:00:57;27.40;99.90
19972;DHT22;10147;16.402;102.848;2023-09-19T14:03:27;27.40;99.90
19972;DHT22;10147;16.402;102.848;2023-09-19T14:05:58;27.40;99.90
19972;DHT22;10147;16.402;102.848;2023-09-19T14:08:28;27.40;99.90
19972;DHT22;10147;16.402;102.848;2023-09-19T14:10:59;27.30;99.90
19972;DHT22;10147;16.402;102.848;2023-09-19T14:13:29;27.30;99.90
19972;DHT22;10147;16.402;102.848;2023-09-19T14:16:07;27.30;99.90
19972;DHT22;10147;16.402;102.848;2023-09-19T14:18:38;27.20;99.90
19972;DHT22;10147;16.402;102.848;2023-09-19T14:21:12;27.10;99.90
19972;DHT22;10147;16.402;102.848;2023-09-19T14:23:42;27.10;99.90
19972;DHT22;10147;16.402;102.848;2023-09-19T14:26:12;27.00;99.90
19972;DHT22;10147;16.402;102.848;2023-09-19T14:28:43;27.10;99.90
19972;DHT22;10147;16.402;102.848;2023-09-19T14:31:14;27.10;99.90
19972;DHT22;10147;16.402;102.848;2023-09-19T14:33:44;27.10;99.90
19972;DHT22;10147;16.402;102.848;2023-09-19T14:36:14;27.10;99.90
19972;DHT22;10147;16.402;102.848;2023-09-19T14:38:44;27.10;99.90
19972;DHT22;10147;16.402;102.848;2023-09-19T14:41:14;27.10;99.90
19972;DHT22;10147;16.402;102.848;2023-09-19T14:43:44;27.20;99.90
19972;DHT22;10147;16.402;102.848;2023-09-19T14:46:14;27.20;99.90
19972;DHT22;10147;16.402;102.848;2023-09-19T14:48:44;27.00;99.90
19972;DHT22;10147;16.402;102.848;2023-09-19T14:51:16;26.80;99.90
19972;DHT22;10147;16.402;102.848;2023-09-19T14:53:48;26.80;99.90
19972;DHT22;10147;16.402;102.848;2023-09-19T14:56:18;26.90;99.90
19972;DHT22;10147;16.402;102.848;2023-09-19T14:58:49;27.00;99.90
19972;DHT22;10147;16.402;102.848;2023-09-19T15:01:19;26.90;99.90
19972;DHT22;10147;16.402;102.848;2023-09-19T15:03:52;26.70;99.90
19972;DHT22;10147;16.402;102.848;2023-09-19T15:06:23;26.80;99.90
19972;DHT22;10147;16.402;102.848;2023-09-19T15:08:56;26.90;99.90
19972;DHT22;10147;16.402;102.848;2023-09-19T15:11:27;26.90;99.90
19972;DHT22;10147;16.402;102.848;2023-09-19T15:13:57;26.80;99.90
19972;DHT22;10147;16.402;102.848;2023-09-19T15:16:28;26.90;99.90
19972;DHT22;10147;16.402;102.848;2023-09-19T15:18:58;27.00;99.90
19972;DHT22;10147;16.402;102.848;2023-09-19T15:21:28;27.00;99.90
19972;DHT22;10147;16.402;102.848;2023-09-19T15:23:58;27.00;99.90
19972;DHT22;10147;16.402;102.848;2023-09-19T15:26:28;26.90;99.90
19972;DHT22;10147;16.402;102.848;2023-09-19T15:28:59;27.00;99.90
19972;DHT22;10147;16.402;102.848;2023-09-19T15:31:29;27.00;99.90
19972;DHT22;10147;16.402;102.848;2023-09-19T15:33:59;27.00;99.90
19972;DHT22;10147;16.402;102.848;2023-09-19T15:36:30;27.00;99.90
19972;DHT22;10147;16.402;102.848;2023-09-19T15:39:04;26.80;99.90
19972;DHT22;10147;16.402;102.848;2023-09-19T15:41:45;26.90;99.90
19972;DHT22;10147;16.402;102.848;2023-09-19T15:44:20;26.90;99.90
19972;DHT22;10147;16.402;102.848;2023-09-19T15:46:53;26.90;99.90
19972;DHT22;10147;16.402;102.848;2023-09-19T15:49:23;26.80;99.90
19972;DHT22;10147;16.402;102.848;2023-09-19T15:51:53;26.80;99.90
19972;DHT22;10147;16.402;102.848;2023-09-19T15:54:22;26.80;99.90
19972;DHT22;10147;16.402;102.848;2023-09-19T15:56:55;26.70;99.90
19972;DHT22;10147;16.402;102.848;2023-09-19T15:59:25;26.60;99.90
19972;DHT22;10147;16.402;102.848;2023-09-19T16:01:55;26.60;99.90
19972;DHT22;10147;16.402;102.848;2023-09-19T16:04:25;26.70;99.90
19972;DHT22;10147;16.402;102.848;2023-09-19T16:06:55;26.70;99.90
19972;DHT22;10147;16.402;102.848;2023-09-19T16:09:26;26.60;99.90